OISL  Lar Airport

Add Bookmark

Lar, Iran

Status IATA
Operational LRR
Latitude Longitude
27° 40' 28" N 54° 22' 59" E
27.674700 54.383301
Local (DST + 5) UTC (GMT + 4)
Aug 1, 2014 06:22 Aug 1, 2014 13:52
Sunrise-Sunset Local UTC
Begin Civil Twilight 05:49 01:19
Sunrise 06:14 01:44
Sunset 07:43 15:13
End Civil Twilight 08:08 15:38

Current Weather

METAR Observed VFR
OISL 011300Z 24006KT CAVOK 45/16 Q0999 Fri, Aug 1, 2014 @ 13:00 UTC
(52 Minutes ago)
Visual Flight Rules

Decoded METAR

Wind Visibility Clouds Conditions
240° at 6 knots (11 kph) 10 km or more
  • Clear skies
  • No significant weather
Temperatures Readings Precipitation
Current Temp 45°C (113°F)
Dewpoint 16°C (61°F)
Humidity 19%
Altimeter 29.5"Hg
Sea Level Pressure 999mb
Field Elevation 2641.08'
None Recorded

Additional weather within a 185.2km radius of OISL

Map ICAO Location
OIBK 133.7km S (197°)
OIBL 134.3km S (161°)
OIBV 139.6km S (227°)
OISF 149.8km N (335°)
OIBP 165.4km W (259°)
OIKQ 181.7km S (124°)

24 Hour Weather History

Loading
-

24 Hour Weather Graphs

Loading
-

CheckWX.com is intended as a tool to help pilots better visualize weather data. It is not intended as a substitute for an official weather briefing obtained from a Flight Service Station. CheckWX.com does not meet the FAA requirements for an official pre-flight weather briefing. Therefore, it's important that pilots still call and obtain an official FSS pre-flight weather briefing.